createdAt,value
2023-01-19T00:01:41.349Z,-2.70
2023-01-19T00:04:28.080Z,-2.70
2023-01-19T00:07:16.671Z,-2.60
2023-01-19T00:10:03.811Z,-2.60
2023-01-19T00:12:50.559Z,-2.60
2023-01-19T00:15:37.363Z,-2.70
2023-01-19T00:18:25.271Z,-2.80
2023-01-19T00:21:14.800Z,-2.80
2023-01-19T00:24:01.643Z,-2.50
2023-01-19T00:26:48.372Z,-2.80
2023-01-19T00:29:36.216Z,-2.80
2023-01-19T00:32:22.950Z,-2.80
2023-01-19T00:35:09.931Z,-2.70
2023-01-19T00:37:58.101Z,-2.60
2023-01-19T00:40:45.884Z,-2.70
2023-01-19T00:43:32.671Z,-2.70
2023-01-19T00:46:19.395Z,-2.80
2023-01-19T00:49:06.473Z,-2.80
2023-01-19T00:51:54.183Z,-2.90
2023-01-19T00:54:40.829Z,-2.90
2023-01-19T00:57:29.631Z,-3.00
2023-01-19T01:00:19.880Z,-2.80
2023-01-19T01:03:07.796Z,-2.90
2023-01-19T01:05:54.594Z,-2.80
2023-01-19T01:08:41.440Z,-3.00
2023-01-19T01:11:28.194Z,-3.10
2023-01-19T01:14:15.986Z,-3.20
2023-01-19T01:17:02.722Z,-3.30
2023-01-19T01:19:49.535Z,-3.40
2023-01-19T01:22:36.311Z,-3.50
2023-01-19T01:25:26.293Z,-3.50
2023-01-19T01:28:13.144Z,-3.40
2023-01-19T01:30:59.913Z,-3.30
2023-01-19T01:33:46.596Z,-3.20
2023-01-19T01:36:34.355Z,-2.60
2023-01-19T01:39:22.344Z,-3.10
2023-01-19T01:42:18.304Z,-2.90
2023-01-19T01:45:22.795Z,-3.10
2023-01-19T01:48:28.159Z,-3.20
2023-01-19T01:51:41.163Z,-3.40
2023-01-19T01:54:32.172Z,-3.50
2023-01-19T01:57:19.412Z,-3.10
2023-01-19T02:03:11.767Z,-3.60
2023-01-19T02:06:01.581Z,-3.70
2023-01-19T02:09:20.844Z,-3.60
2023-01-19T02:12:27.118Z,-3.60
2023-01-19T02:15:18.999Z,-3.70
2023-01-19T02:18:05.986Z,-3.60
2023-01-19T02:21:04.651Z,-3.50
2023-01-19T02:23:57.250Z,-3.60
2023-01-19T02:26:47.022Z,-3.70
2023-01-19T02:29:34.715Z,-3.80
2023-01-19T02:32:21.454Z,-3.80
2023-01-19T02:35:09.438Z,-3.90
2023-01-19T02:37:57.387Z,-3.90
2023-01-19T02:40:45.037Z,-3.90
2023-01-19T02:43:33.079Z,-3.90
2023-01-19T02:46:20.864Z,-3.90
2023-01-19T02:49:07.801Z,-3.70
2023-01-19T02:55:20.429Z,-3.90
2023-01-19T02:58:19.143Z,-4.10
2023-01-19T03:01:24.866Z,-4.20
2023-01-19T03:04:44.315Z,-4.20
2023-01-19T03:07:41.815Z,-4.20
2023-01-19T03:10:53.767Z,-4.10
2023-01-19T03:13:56.169Z,-4.10
2023-01-19T03:16:44.182Z,-4.00
2023-01-19T03:19:43.203Z,-3.90
2023-01-19T03:22:30.932Z,-3.80
2023-01-19T03:25:19.827Z,-3.80
2023-01-19T03:28:06.814Z,-3.90
2023-01-19T03:31:03.465Z,-3.90
2023-01-19T03:33:55.964Z,-4.00
2023-01-19T03:36:51.437Z,-4.00
2023-01-19T03:39:38.225Z,-3.90
2023-01-19T03:42:27.257Z,-3.90
2023-01-19T03:45:16.038Z,-3.30
2023-01-19T03:48:03.787Z,-3.90
2023-01-19T03:50:51.979Z,-3.90
2023-01-19T03:53:38.870Z,-3.90
2023-01-19T03:56:26.896Z,-3.90
2023-01-19T03:59:17.554Z,-4.00
2023-01-19T04:02:04.361Z,-4.10
2023-01-19T04:04:51.343Z,-4.10
2023-01-19T04:07:38.977Z,-4.20
2023-01-19T04:10:25.866Z,-4.10
2023-01-19T04:13:12.590Z,-4.20
2023-01-19T04:16:01.126Z,-4.30
2023-01-19T04:18:49.281Z,-4.40
2023-01-19T04:21:36.040Z,-4.50
2023-01-19T04:24:22.836Z,-4.60
2023-01-19T04:27:09.531Z,-4.50
2023-01-19T04:29:57.309Z,-4.50
2023-01-19T04:32:44.232Z,-4.60
2023-01-19T04:35:31.143Z,-4.60
2023-01-19T04:38:17.854Z,-4.60
2023-01-19T04:41:04.908Z,-4.60
2023-01-19T04:43:51.667Z,-4.60
2023-01-19T04:46:38.551Z,-4.60
2023-01-19T04:49:25.369Z,-4.50
2023-01-19T04:52:12.163Z,-4.70
2023-01-19T04:54:58.803Z,-4.80
2023-01-19T04:57:45.982Z,-4.80
2023-01-19T05:00:33.608Z,-4.80
2023-01-19T05:03:20.784Z,-4.80
2023-01-19T05:06:07.734Z,-4.70
2023-01-19T05:08:54.551Z,-4.70
2023-01-19T05:11:41.691Z,-4.70
2023-01-19T05:14:28.432Z,-4.60
2023-01-19T05:17:15.171Z,-4.70
2023-01-19T05:20:03.679Z,-4.60
2023-01-19T05:22:52.197Z,-4.60
2023-01-19T05:25:38.969Z,-4.70
2023-01-19T05:28:25.652Z,-4.80
2023-01-19T05:31:12.462Z,-4.90
2023-01-19T05:33:59.199Z,-4.90
2023-01-19T05:36:46.000Z,-4.90
2023-01-19T05:39:33.451Z,-4.90
2023-01-19T05:42:20.447Z,-5.00
2023-01-19T05:45:07.827Z,-5.10
2023-01-19T05:47:55.298Z,-5.10
2023-01-19T05:50:41.928Z,-5.10
2023-01-19T05:53:29.085Z,-5.10
2023-01-19T05:56:15.912Z,-5.20
2023-01-19T05:59:02.688Z,-5.20
2023-01-19T06:01:53.035Z,-5.20
2023-01-19T06:04:39.840Z,-5.20
2023-01-19T06:07:29.040Z,-5.20
2023-01-19T06:10:16.374Z,-5.20
2023-01-19T06:13:03.488Z,-5.20
2023-01-19T06:15:57.348Z,-5.30
2023-01-19T06:18:44.126Z,-5.10
2023-01-19T06:21:31.502Z,-5.20
2023-01-19T06:24:19.083Z,-5.20
2023-01-19T06:27:06.574Z,-5.30
2023-01-19T06:29:53.242Z,-5.20
2023-01-19T06:32:40.091Z,-5.20
2023-01-19T06:35:27.320Z,-5.30
2023-01-19T06:38:14.357Z,-5.40
2023-01-19T06:41:04.792Z,-5.50
2023-01-19T06:43:51.516Z,-5.50
2023-01-19T06:46:38.359Z,-5.60
2023-01-19T06:49:25.174Z,-5.80
2023-01-19T06:52:15.808Z,-5.80
2023-01-19T06:55:02.621Z,-5.80
2023-01-19T06:57:55.571Z,-5.70
2023-01-19T07:00:43.128Z,-5.60
2023-01-19T07:03:30.535Z,-5.40
2023-01-19T07:06:17.547Z,-5.40
2023-01-19T07:09:07.878Z,-5.40
2023-01-19T07:11:55.269Z,-5.30
2023-01-19T07:14:42.012Z,-5.40
2023-01-19T07:17:28.803Z,-5.40
2023-01-19T07:20:15.835Z,-5.40
2023-01-19T07:23:03.326Z,-5.40
2023-01-19T07:25:50.179Z,-5.40
2023-01-19T07:28:37.279Z,-5.40
2023-01-19T07:31:24.287Z,-5.40
2023-01-19T07:34:12.543Z,-5.30
2023-01-19T07:36:59.350Z,-5.30
2023-01-19T07:39:46.075Z,-5.20
2023-01-19T07:42:32.867Z,-5.00
2023-01-19T07:45:20.929Z,-4.90
2023-01-19T07:48:07.842Z,-4.80
2023-01-19T07:50:59.907Z,-4.70
2023-01-19T07:53:47.072Z,-4.60
2023-01-19T07:56:34.164Z,-4.40
2023-01-19T07:59:21.404Z,-4.20
2023-01-19T08:02:10.461Z,-4.00
2023-01-19T08:04:57.294Z,-3.80
2023-01-19T08:07:45.251Z,-3.60
2023-01-19T08:10:31.966Z,-3.60
2023-01-19T08:13:18.928Z,-3.70
2023-01-19T08:16:06.198Z,-3.70
2023-01-19T08:18:53.075Z,-3.80
2023-01-19T08:21:39.946Z,-3.90
2023-01-19T08:24:28.620Z,-3.90
2023-01-19T08:27:15.403Z,-3.90
2023-01-19T08:30:02.108Z,-3.80
2023-01-19T08:32:48.797Z,-3.80
2023-01-19T08:35:41.261Z,-3.60
2023-01-19T08:38:27.969Z,-3.50
2023-01-19T08:41:16.977Z,-3.40
2023-01-19T08:44:03.953Z,-3.30
2023-01-19T08:46:50.789Z,-3.30
2023-01-19T08:49:37.486Z,-3.40
2023-01-19T08:52:26.763Z,-3.40
2023-01-19T08:55:13.494Z,-3.20
2023-01-19T08:58:01.567Z,-3.10
2023-01-19T09:00:48.912Z,-3.00
2023-01-19T09:03:36.219Z,-2.90
2023-01-19T09:06:25.171Z,-2.70
2023-01-19T09:09:12.004Z,-2.60
2023-01-19T09:11:58.798Z,-2.60
2023-01-19T09:14:45.600Z,-2.50
2023-01-19T09:17:32.328Z,-2.40
2023-01-19T09:20:19.105Z,-2.30
2023-01-19T09:23:06.305Z,-2.30
2023-01-19T09:25:58.162Z,-2.30
2023-01-19T09:28:44.941Z,-2.40
2023-01-19T09:31:31.719Z,-2.50
2023-01-19T09:34:18.626Z,-2.40
2023-01-19T09:37:05.490Z,-2.60
2023-01-19T09:39:52.352Z,-2.40
2023-01-19T09:42:44.474Z,-2.00
2023-01-19T09:45:48.479Z,-1.30
2023-01-19T09:48:45.702Z,-0.50
2023-01-19T09:51:39.431Z,0.00
2023-01-19T09:54:43.004Z,0.30
2023-01-19T09:57:36.346Z,0.40
2023-01-19T10:00:25.708Z,0.60
2023-01-19T10:03:16.787Z,0.90
2023-01-19T10:06:06.106Z,1.40
2023-01-19T10:09:04.110Z,1.60
2023-01-19T10:12:19.956Z,1.80
2023-01-19T10:15:34.192Z,2.10
2023-01-19T10:18:45.835Z,2.40
2023-01-19T10:21:42.109Z,2.90
2023-01-19T10:24:34.821Z,4.80
2023-01-19T10:27:27.239Z,6.60
2023-01-19T10:30:24.559Z,9.70
2023-01-19T10:33:15.321Z,14.70
2023-01-19T10:36:06.986Z,19.30
2023-01-19T10:38:53.820Z,23.00
2023-01-19T10:41:49.179Z,25.60
2023-01-19T10:44:37.368Z,27.40
2023-01-19T10:47:31.901Z,28.50
2023-01-19T10:50:32.205Z,27.10
2023-01-19T10:53:22.804Z,25.30
2023-01-19T10:56:37.303Z,22.00
2023-01-19T10:59:35.116Z,19.30
2023-01-19T11:02:29.352Z,19.20
2023-01-19T11:05:26.544Z,19.50
2023-01-19T11:08:28.694Z,21.60
2023-01-19T11:11:15.391Z,25.80
2023-01-19T11:14:13.029Z,28.60
2023-01-19T11:16:59.760Z,29.90
2023-01-19T11:20:00.964Z,31.00
2023-01-19T11:22:48.908Z,32.30
2023-01-19T11:25:36.747Z,31.80
2023-01-19T11:28:35.043Z,32.70
2023-01-19T11:31:35.743Z,32.90
2023-01-19T11:34:33.277Z,29.80
2023-01-19T11:37:19.911Z,25.20
2023-01-19T11:40:10.575Z,20.80
2023-01-19T11:42:58.076Z,20.20
2023-01-19T11:45:46.135Z,22.40
2023-01-19T11:48:39.434Z,23.00
2023-01-19T11:51:31.615Z,22.70
2023-01-19T11:54:26.957Z,21.40
2023-01-19T11:57:17.203Z,18.60
2023-01-19T12:00:13.637Z,15.10
2023-01-19T12:03:20.570Z,12.40
2023-01-19T12:06:12.636Z,10.20
2023-01-19T12:09:09.539Z,8.60
2023-01-19T12:12:06.257Z,7.60
2023-01-19T12:15:35.925Z,6.80
2023-01-19T12:18:27.074Z,6.10
2023-01-19T12:21:14.534Z,5.50
2023-01-19T12:24:24.894Z,5.10
2023-01-19T12:30:45.327Z,4.40
2023-01-19T12:33:39.930Z,4.10
2023-01-19T12:36:26.739Z,3.90
2023-01-19T12:39:22.463Z,3.70
2023-01-19T12:42:16.893Z,3.60
2023-01-19T12:45:13.531Z,3.40
2023-01-19T12:48:01.930Z,3.30
2023-01-19T12:50:49.644Z,3.20
2023-01-19T12:53:36.258Z,3.10
2023-01-19T12:56:32.827Z,3.10
2023-01-19T12:59:26.539Z,3.10
2023-01-19T13:02:28.360Z,3.10
2023-01-19T13:05:38.468Z,3.10
2023-01-19T13:08:46.971Z,3.00
2023-01-19T13:11:34.787Z,2.90
2023-01-19T13:14:36.499Z,2.90
2023-01-19T13:17:33.734Z,3.40
2023-01-19T13:20:25.042Z,2.80
2023-01-19T13:23:21.782Z,2.80
2023-01-19T13:26:15.549Z,2.80
2023-01-19T13:29:14.489Z,2.60
2023-01-19T13:32:13.562Z,2.40
2023-01-19T13:35:02.195Z,2.30
2023-01-19T13:37:50.196Z,2.30
2023-01-19T13:40:38.879Z,2.30
2023-01-19T13:43:32.185Z,2.30
2023-01-19T13:46:19.394Z,2.30
2023-01-19T13:49:26.128Z,2.10
2023-01-19T13:52:31.258Z,1.80
2023-01-19T13:55:20.170Z,1.50
2023-01-19T13:58:20.814Z,1.50
2023-01-19T14:01:20.369Z,1.50
2023-01-19T14:04:31.825Z,1.50
2023-01-19T14:07:27.080Z,1.40
2023-01-19T14:10:16.736Z,1.40
2023-01-19T14:13:14.140Z,1.40
2023-01-19T14:16:06.655Z,1.20
2023-01-19T14:19:05.496Z,1.20
2023-01-19T14:22:04.049Z,1.10
2023-01-19T14:24:50.857Z,1.10
2023-01-19T14:27:37.558Z,1.10
2023-01-19T14:30:30.236Z,1.00
2023-01-19T14:33:45.313Z,0.90
2023-01-19T14:36:41.988Z,0.90
2023-01-19T14:39:36.033Z,0.90
2023-01-19T14:42:28.703Z,0.70
2023-01-19T14:45:22.129Z,0.70
2023-01-19T14:48:20.564Z,0.70
2023-01-19T14:51:07.720Z,0.80
2023-01-19T14:53:58.813Z,0.90
2023-01-19T14:56:45.727Z,1.00
2023-01-19T14:59:32.766Z,1.10
2023-01-19T15:02:19.782Z,1.20
2023-01-19T15:05:09.504Z,1.20
2023-01-19T15:07:56.283Z,1.10
2023-01-19T15:10:44.042Z,1.10
2023-01-19T15:13:30.808Z,1.10
2023-01-19T15:16:18.994Z,1.00
2023-01-19T15:19:05.842Z,0.90
2023-01-19T15:21:52.814Z,0.90
2023-01-19T15:24:40.887Z,0.90
2023-01-19T15:27:28.698Z,1.00
2023-01-19T15:30:20.282Z,1.10
2023-01-19T15:33:08.960Z,1.10
2023-01-19T15:35:55.680Z,1.10
2023-01-19T15:38:43.719Z,1.10
2023-01-19T15:41:30.894Z,1.10
2023-01-19T15:44:17.624Z,1.10
2023-01-19T15:47:04.353Z,1.10
2023-01-19T15:49:51.992Z,1.00
2023-01-19T15:52:38.887Z,0.90
2023-01-19T15:55:25.861Z,0.80
2023-01-19T15:58:14.029Z,0.70
2023-01-19T16:01:01.006Z,0.70
2023-01-19T16:03:48.263Z,0.60
2023-01-19T16:06:35.260Z,0.60
2023-01-19T16:09:22.315Z,0.60
2023-01-19T16:12:09.059Z,0.60
2023-01-19T16:14:55.755Z,0.70
2023-01-19T16:17:42.912Z,0.70
2023-01-19T16:20:29.620Z,0.60
2023-01-19T16:23:16.345Z,0.60
2023-01-19T16:26:09.387Z,0.70
2023-01-19T16:29:01.241Z,0.70
2023-01-19T16:31:47.993Z,0.80
2023-01-19T16:34:34.804Z,0.80
2023-01-19T16:37:21.475Z,0.80
2023-01-19T16:40:09.299Z,1.20
2023-01-19T16:42:56.242Z,0.70
2023-01-19T16:46:00.756Z,0.70
2023-01-19T16:48:47.545Z,0.60
2023-01-19T16:51:34.469Z,0.60
2023-01-19T16:54:23.409Z,0.50
2023-01-19T16:57:10.955Z,0.40
2023-01-19T16:59:57.657Z,0.30
2023-01-19T17:02:44.418Z,0.30
2023-01-19T17:05:31.180Z,0.20
2023-01-19T17:08:19.700Z,0.20
2023-01-19T17:11:20.532Z,0.20
2023-01-19T17:14:21.225Z,0.30
2023-01-19T17:17:09.397Z,0.30
2023-01-19T17:19:56.155Z,0.30
2023-01-19T17:22:42.969Z,0.40
2023-01-19T17:25:30.635Z,0.30
2023-01-19T17:28:17.262Z,0.30
2023-01-19T17:31:10.931Z,0.30
2023-01-19T17:33:58.827Z,0.30
2023-01-19T17:36:45.607Z,0.30
2023-01-19T17:39:32.512Z,0.40
2023-01-19T17:42:19.287Z,0.40
2023-01-19T17:45:06.699Z,0.30
2023-01-19T17:47:53.662Z,0.30
2023-01-19T17:50:40.381Z,0.30
2023-01-19T17:53:27.213Z,0.30
2023-01-19T17:56:21.366Z,0.30
2023-01-19T17:59:08.432Z,0.30
2023-01-19T18:01:55.209Z,0.20
2023-01-19T18:04:42.040Z,0.20
2023-01-19T18:07:29.871Z,0.10
2023-01-19T18:10:42.530Z,0.20
2023-01-19T18:13:35.628Z,0.00
2023-01-19T18:16:29.039Z,0.10
2023-01-19T18:19:21.845Z,0.20
2023-01-19T18:22:11.978Z,0.10
2023-01-19T18:25:14.883Z,0.20
2023-01-19T18:31:56.872Z,0.20
2023-01-19T18:34:59.568Z,0.20
2023-01-19T18:37:59.328Z,0.20
2023-01-19T18:40:51.665Z,0.70
2023-01-19T18:43:56.930Z,0.20
2023-01-19T18:47:02.752Z,0.20
2023-01-19T18:49:59.602Z,0.20
2023-01-19T18:56:27.633Z,0.20
2023-01-19T18:59:37.511Z,0.10
2023-01-19T19:03:12.309Z,0.10
2023-01-19T19:09:27.813Z,0.10
2023-01-19T19:12:53.996Z,0.10
2023-01-19T19:15:58.596Z,0.40
2023-01-19T19:18:56.326Z,0.00
2023-01-19T19:22:13.416Z,0.10
2023-01-19T19:25:13.807Z,0.10
2023-01-19T19:28:05.015Z,0.10
2023-01-19T19:31:07.786Z,0.10
2023-01-19T19:34:09.641Z,0.10
2023-01-19T19:37:32.109Z,0.10
2023-01-19T19:40:28.433Z,0.10
2023-01-19T19:43:27.501Z,-0.30
2023-01-19T19:46:37.700Z,0.00
2023-01-19T19:49:31.123Z,0.30
2023-01-19T19:52:22.906Z,0.00
2023-01-19T19:55:26.978Z,0.30
2023-01-19T19:58:55.154Z,0.00
2023-01-19T20:02:07.649Z,0.00
2023-01-19T20:04:58.465Z,0.00
2023-01-19T20:07:57.046Z,0.00
2023-01-19T20:11:14.291Z,0.00
2023-01-19T20:14:26.101Z,0.00
2023-01-19T20:17:51.699Z,-0.10
2023-01-19T20:20:47.220Z,-0.20
2023-01-19T20:24:13.601Z,-0.10
2023-01-19T20:27:02.763Z,-0.30
2023-01-19T20:30:05.831Z,0.00
2023-01-19T20:33:03.510Z,-0.10
2023-01-19T20:36:16.992Z,-0.10
2023-01-19T20:39:29.283Z,-0.10
2023-01-19T20:42:29.160Z,-0.10
2023-01-19T20:45:43.769Z,-0.10
2023-01-19T20:48:36.640Z,-0.10
2023-01-19T20:51:51.714Z,-0.10
2023-01-19T20:55:05.892Z,-0.50
2023-01-19T21:01:22.807Z,-0.20
2023-01-19T21:04:26.955Z,0.00
2023-01-19T21:10:54.904Z,-0.10
2023-01-19T21:14:02.658Z,-0.10
2023-01-19T21:17:03.653Z,0.10
2023-01-19T21:23:11.173Z,-0.20
2023-01-19T21:26:13.053Z,-0.10
2023-01-19T21:29:18.229Z,-0.50
2023-01-19T21:32:23.571Z,-0.30
2023-01-19T21:35:32.858Z,-0.10
2023-01-19T21:38:30.010Z,0.00
2023-01-19T21:41:27.317Z,-0.20
2023-01-19T21:44:34.962Z,-0.10
2023-01-19T21:47:49.664Z,-0.10
2023-01-19T21:54:42.646Z,-0.10
2023-01-19T21:57:29.476Z,-0.10
2023-01-19T22:00:16.850Z,0.00
2023-01-19T22:03:04.728Z,-0.10
2023-01-19T22:05:52.570Z,-0.10
2023-01-19T22:08:39.961Z,-0.10
2023-01-19T22:11:27.579Z,-0.10
2023-01-19T22:14:14.292Z,-0.10
2023-01-19T22:17:01.862Z,-0.10
2023-01-19T22:19:48.856Z,-0.10
2023-01-19T22:22:35.643Z,-0.10
2023-01-19T22:25:27.463Z,-0.10
2023-01-19T22:28:15.108Z,-0.10
2023-01-19T22:31:16.014Z,-0.10
2023-01-19T22:37:07.816Z,0.00
2023-01-19T22:39:55.443Z,-0.10
2023-01-19T22:42:48.276Z,0.00
2023-01-19T22:45:35.027Z,-0.10
2023-01-19T22:48:22.375Z,-0.10
2023-01-19T22:51:10.079Z,-0.10
2023-01-19T22:53:56.836Z,-0.10
2023-01-19T22:56:43.699Z,-0.10
2023-01-19T22:59:30.416Z,-0.10
2023-01-19T23:02:19.806Z,-0.10
2023-01-19T23:05:07.564Z,-0.10
2023-01-19T23:07:54.295Z,-0.10
2023-01-19T23:10:41.096Z,-0.10
2023-01-19T23:13:27.896Z,-0.10
2023-01-19T23:16:15.040Z,-0.10
2023-01-19T23:19:02.164Z,-0.20
2023-01-19T23:21:52.010Z,-0.20
2023-01-19T23:24:38.988Z,-0.20
2023-01-19T23:27:26.567Z,-0.20
2023-01-19T23:30:13.628Z,-0.20
2023-01-19T23:33:00.462Z,-0.20
2023-01-19T23:35:48.130Z,-0.20
2023-01-19T23:38:34.864Z,-0.20
2023-01-19T23:41:22.845Z,-0.20
2023-01-19T23:44:09.692Z,-0.20
2023-01-19T23:46:58.021Z,-0.20
2023-01-19T23:49:44.825Z,-0.20
2023-01-19T23:52:32.027Z,-0.20
2023-01-19T23:55:18.784Z,-0.20
2023-01-19T23:58:06.487Z,-0.30
